createdAt,value
2023-04-08T00:01:26.195Z,97732.91
2023-04-08T00:03:54.389Z,97732.91
2023-04-08T00:06:22.232Z,97732.03
2023-04-08T00:08:50.237Z,97737.28
2023-04-08T00:11:19.561Z,97731.13
2023-04-08T00:13:47.334Z,97738.13
2023-04-08T00:16:15.316Z,97737.28
2023-04-08T00:18:43.254Z,97738.13
2023-04-08T00:21:10.994Z,97736.38
2023-04-08T00:23:38.784Z,97737.28
2023-04-08T00:26:06.616Z,97733.00
2023-04-08T00:28:35.767Z,97739.19
2023-04-08T00:31:03.562Z,97746.97
2023-04-08T00:33:31.351Z,97741.75
2023-04-08T00:35:59.183Z,97739.88
2023-04-08T00:38:27.012Z,97736.47
2023-04-08T00:40:54.785Z,97732.19
2023-04-08T00:43:22.570Z,97739.25
2023-04-08T00:45:51.771Z,97741.81
2023-04-08T00:48:19.688Z,97745.34
2023-04-08T00:50:47.497Z,97741.00
2023-04-08T00:53:17.236Z,97736.63
2023-04-08T00:55:45.382Z,97741.00
2023-04-08T00:58:14.033Z,97747.09
2023-04-08T01:00:44.721Z,97740.16
2023-04-08T01:03:18.171Z,97746.25
2023-04-08T01:05:52.909Z,97747.88
2023-04-08T01:08:20.926Z,97751.41
2023-04-08T01:10:51.039Z,97744.69
2023-04-08T01:13:19.655Z,97751.41
2023-04-08T01:15:47.431Z,97749.72
2023-04-08T01:18:17.367Z,97754.94
2023-04-08T01:20:46.241Z,97747.16
2023-04-08T01:23:17.669Z,97751.56
2023-04-08T01:25:48.788Z,97752.38
2023-04-08T01:28:17.998Z,97748.84
2023-04-08T01:30:47.282Z,97750.63
2023-04-08T01:33:16.683Z,97725.19
2023-04-08T01:35:44.766Z,97752.47
2023-04-08T01:38:15.855Z,97740.25
2023-04-08T01:40:43.879Z,97746.34
2023-04-08T01:43:15.014Z,97739.66
2023-04-08T01:45:43.763Z,97720.66
2023-04-08T01:48:12.197Z,97739.25
2023-04-08T01:50:41.279Z,97741.22
2023-04-08T01:53:10.118Z,97754.25
2023-04-08T01:55:38.916Z,97739.53
2023-04-08T01:58:08.779Z,97743.84
2023-04-08T02:00:38.123Z,97738.66
2023-04-08T02:03:07.064Z,97742.13
2023-04-08T02:05:35.373Z,97745.53
2023-04-08T02:08:03.227Z,97731.84
2023-04-08T02:10:31.013Z,97739.53
2023-04-08T02:12:58.805Z,97740.50
2023-04-08T02:15:27.565Z,97743.16
2023-04-08T02:17:57.688Z,97740.63
2023-04-08T02:20:32.481Z,97744.91
2023-04-08T02:23:05.200Z,97744.91
2023-04-08T02:25:36.101Z,97746.63
2023-04-08T02:28:05.842Z,97742.31
2023-04-08T02:30:34.029Z,97745.00
2023-04-08T02:33:04.668Z,97737.47
2023-04-08T02:35:32.879Z,97743.44
2023-04-08T02:38:00.761Z,97736.50
2023-04-08T02:40:30.519Z,97744.25
2023-04-08T02:42:58.978Z,97738.22
2023-04-08T02:45:29.248Z,97742.59
2023-04-08T02:47:57.081Z,97748.78
2023-04-08T02:50:26.275Z,97749.63
2023-04-08T02:52:54.020Z,97750.47
2023-04-08T02:55:21.743Z,97740.28
2023-04-08T02:57:49.890Z,97749.75
2023-04-08T03:00:18.228Z,97745.47
2023-04-08T03:02:46.354Z,97749.00
2023-04-08T03:05:16.315Z,97747.34
2023-04-08T03:07:45.505Z,97747.41
2023-04-08T03:10:13.363Z,97757.91
2023-04-08T03:12:41.174Z,97760.78
2023-04-08T03:15:09.564Z,97756.47
2023-04-08T03:17:37.364Z,97753.09
2023-04-08T03:20:06.179Z,97761.97
2023-04-08T03:22:34.386Z,97754.22
2023-04-08T03:25:03.897Z,97762.22
2023-04-08T03:27:31.879Z,97768.44
2023-04-08T03:29:59.678Z,97763.38
2023-04-08T03:32:27.570Z,97762.72
2023-04-08T03:34:55.359Z,97763.69
2023-04-08T03:37:23.176Z,97769.91
2023-04-08T03:39:50.975Z,97768.31
2023-04-08T03:42:20.159Z,97767.56
2023-04-08T03:44:47.964Z,97775.50
2023-04-08T03:47:15.750Z,97774.66
2023-04-08T03:49:43.523Z,97772.09
2023-04-08T03:52:11.321Z,97778.25
2023-04-08T03:54:39.150Z,97774.84
2023-04-08T03:57:06.901Z,97789.59
2023-04-08T03:59:36.469Z,97777.56
2023-04-08T04:02:04.455Z,97780.97
2023-04-08T04:04:32.360Z,97777.56
2023-04-08T04:07:00.177Z,97772.47
2023-04-08T04:09:28.170Z,97779.63
2023-04-08T04:11:55.966Z,97784.09
2023-04-08T04:14:23.731Z,97788.41
2023-04-08T04:16:52.904Z,97783.28
2023-04-08T04:19:20.892Z,97763.75
2023-04-08T04:21:48.646Z,97779.09
2023-04-08T04:24:16.476Z,97784.44
2023-04-08T04:26:44.203Z,97781.94
2023-04-08T04:29:11.980Z,97786.44
2023-04-08T04:31:39.953Z,97787.38
2023-04-08T04:34:09.181Z,97790.13
2023-04-08T04:36:36.939Z,97793.66
2023-04-08T04:39:04.904Z,97787.63
2023-04-08T04:41:32.691Z,97797.22
2023-04-08T04:44:00.517Z,97793.09
2023-04-08T04:46:28.354Z,97798.19
2023-04-08T04:48:56.599Z,97788.72
2023-04-08T04:51:26.554Z,97790.66
2023-04-08T04:53:54.334Z,97792.53
2023-04-08T04:56:22.309Z,97790.03
2023-04-08T04:58:50.314Z,97793.56
2023-04-08T05:01:18.228Z,97784.94
2023-04-08T05:03:46.072Z,97774.78
2023-04-08T05:06:13.931Z,97800.81
2023-04-08T05:08:43.088Z,97792.19
2023-04-08T05:11:11.217Z,97771.22
2023-04-08T05:13:38.983Z,97788.22
2023-04-08T05:16:07.425Z,97783.69
2023-04-08T05:18:35.252Z,97796.72
2023-04-08T05:21:03.125Z,97805.41
2023-04-08T05:23:30.850Z,97792.41
2023-04-08T05:26:00.009Z,97808.59
2023-04-08T05:28:27.835Z,97811.16
2023-04-08T05:30:56.073Z,97807.59
2023-04-08T05:33:23.933Z,97810.06
2023-04-08T05:35:51.688Z,97805.69
2023-04-08T05:38:19.553Z,97809.88
2023-04-08T05:40:47.347Z,97820.31
2023-04-08T05:43:16.702Z,97819.31
2023-04-08T05:45:44.456Z,97827.91
2023-04-08T05:48:12.232Z,97820.78
2023-04-08T05:50:40.057Z,97829.44
2023-04-08T05:53:07.920Z,97826.81
2023-04-08T05:55:35.835Z,97832.78
2023-04-08T05:58:03.641Z,97834.50
2023-04-08T06:00:32.778Z,97841.28
2023-04-08T06:03:00.679Z,97828.09
2023-04-08T06:05:28.685Z,97839.25
2023-04-08T06:07:56.431Z,97849.69
2023-04-08T06:10:24.507Z,97843.31
2023-04-08T06:12:52.309Z,97842.91
2023-04-08T06:15:21.274Z,97853.59
2023-04-08T06:17:50.788Z,97854.09
2023-04-08T06:20:18.646Z,97861.75
2023-04-08T06:22:46.374Z,97856.47
2023-04-08T06:25:14.217Z,97850.19
2023-04-08T06:27:42.002Z,97869.47
2023-04-08T06:30:10.814Z,97869.94
2023-04-08T06:32:38.577Z,97856.03
2023-04-08T06:35:09.097Z,97863.91
2023-04-08T06:37:38.724Z,97852.38
2023-04-08T06:40:07.830Z,97860.59
2023-04-08T06:42:36.077Z,97863.78
2023-04-08T06:45:03.967Z,97858.50
2023-04-08T06:47:31.789Z,97868.28
2023-04-08T06:49:59.625Z,97852.53
2023-04-08T06:52:28.759Z,97864.59
2023-04-08T06:54:56.530Z,97872.16
2023-04-08T06:57:24.389Z,97867.38
2023-04-08T06:59:53.516Z,97861.28
2023-04-08T07:02:22.708Z,97868.97
2023-04-08T07:04:50.834Z,97884.78
2023-04-08T07:07:18.641Z,97892.19
2023-04-08T07:09:47.761Z,97885.81
2023-04-08T07:12:15.675Z,97886.16
2023-04-08T07:14:43.448Z,97886.25
2023-04-08T07:17:11.220Z,97889.03
2023-04-08T07:19:39.025Z,97891.75
2023-04-08T07:22:06.840Z,97895.06
2023-04-08T07:24:34.892Z,97893.94
2023-04-08T07:27:04.135Z,97892.25
2023-04-08T07:29:32.344Z,97891.06
2023-04-08T07:32:00.105Z,97896.03
2023-04-08T07:34:27.867Z,97898.31
2023-04-08T07:36:55.653Z,97901.53
2023-04-08T07:39:23.383Z,97909.13
2023-04-08T07:41:51.130Z,97905.31
2023-04-08T07:44:20.291Z,97899.72
2023-04-08T07:46:51.579Z,97902.13
2023-04-08T07:49:19.482Z,97894.00
2023-04-08T07:51:47.316Z,97902.56
2023-04-08T07:54:17.441Z,97904.94
2023-04-08T07:56:45.556Z,97900.63
2023-04-08T07:59:13.671Z,97905.56
2023-04-08T08:01:42.950Z,97911.13
2023-04-08T08:04:10.934Z,97904.75
2023-04-08T08:06:38.760Z,97913.00
2023-04-08T08:09:06.569Z,97914.72
2023-04-08T08:11:34.398Z,97925.59
2023-04-08T08:14:02.173Z,97930.44
2023-04-08T08:16:30.210Z,97932.72
2023-04-08T08:18:59.647Z,97948.00
2023-04-08T08:21:27.807Z,97946.09
2023-04-08T08:23:56.919Z,97949.44
2023-04-08T08:26:24.864Z,97954.38
2023-04-08T08:28:52.627Z,97953.38
2023-04-08T08:31:20.382Z,97962.59
2023-04-08T08:33:48.714Z,97961.66
2023-04-08T08:36:18.184Z,97961.59
2023-04-08T08:38:46.141Z,97970.09
2023-04-08T08:41:13.895Z,97972.84
2023-04-08T08:43:41.676Z,97976.19
2023-04-08T08:46:11.972Z,97974.25
2023-04-08T08:48:40.816Z,97983.81
2023-04-08T08:51:10.673Z,97980.28
2023-04-08T08:53:40.242Z,97988.50
2023-04-08T08:58:41.042Z,97994.28
2023-04-08T09:01:34.343Z,97995.97
2023-04-08T09:04:09.950Z,97995.19
2023-04-08T09:06:37.931Z,98002.13
2023-04-08T09:09:10.584Z,97984.56
2023-04-08T09:11:40.552Z,97996.47
2023-04-08T09:14:19.170Z,98001.63
2023-04-08T09:16:47.334Z,98000.84
2023-04-08T09:19:15.526Z,97999.31
2023-04-08T09:21:43.882Z,97999.03
2023-04-08T09:24:30.799Z,97998.09
2023-04-08T09:26:58.602Z,98007.81
2023-04-08T09:29:30.533Z,98002.56
2023-04-08T09:32:02.524Z,98004.81
2023-04-08T09:34:32.606Z,98009.78
2023-04-08T09:37:00.868Z,98008.66
2023-04-08T09:39:30.803Z,98016.06
2023-04-08T09:42:01.198Z,98008.78
2023-04-08T09:44:30.539Z,98009.63
2023-04-08T09:47:03.164Z,98016.50
2023-04-08T09:49:35.614Z,98014.59
2023-04-08T09:52:08.793Z,98012.41
2023-04-08T09:54:45.477Z,97994.97
2023-04-08T09:57:16.362Z,98017.25
2023-04-08T09:59:51.310Z,98016.56
2023-04-08T10:02:26.776Z,98014.53
2023-04-08T10:04:56.172Z,98010.81
2023-04-08T10:07:24.029Z,98011.00
2023-04-08T10:09:53.504Z,98017.50
2023-04-08T10:12:21.323Z,98011.06
2023-04-08T10:15:22.556Z,98012.34
2023-04-08T10:17:50.523Z,98014.38
2023-04-08T10:20:45.937Z,98013.19
2023-04-08T10:23:14.636Z,98014.59
2023-04-08T10:25:45.293Z,98010.06
2023-04-08T10:28:34.013Z,98019.41
2023-04-08T10:31:03.092Z,98015.69
2023-04-08T10:33:37.258Z,98016.72
2023-04-08T10:36:11.505Z,98013.38
2023-04-08T10:38:39.590Z,98013.56
2023-04-08T10:41:08.841Z,98008.63
2023-04-08T10:43:37.193Z,98015.97
2023-04-08T10:46:05.594Z,98005.84
2023-04-08T10:48:33.773Z,98012.56
2023-04-08T10:51:08.468Z,98012.84
2023-04-08T10:53:37.123Z,97981.38
2023-04-08T10:56:06.264Z,98003.75
2023-04-08T10:58:36.343Z,97990.16
2023-04-08T11:01:05.813Z,97984.84
2023-04-08T11:03:34.826Z,98002.22
2023-04-08T11:06:03.119Z,97999.72
2023-04-08T11:08:31.085Z,98014.56
2023-04-08T11:11:01.256Z,98006.38
2023-04-08T11:13:29.306Z,98011.63
2023-04-08T11:16:00.119Z,98004.41
2023-04-08T11:18:28.655Z,98001.22
2023-04-08T11:20:58.346Z,98001.59
2023-04-08T11:23:27.981Z,98006.53
2023-04-08T11:25:56.197Z,98009.84
2023-04-08T11:28:24.148Z,98004.06
2023-04-08T11:30:52.029Z,98004.81
2023-04-08T11:33:21.638Z,98006.44
2023-04-08T11:35:53.379Z,98012.06
2023-04-08T11:38:23.818Z,98007.16
2023-04-08T11:40:54.186Z,98011.00
2023-04-08T11:43:22.108Z,97994.75
2023-04-08T11:45:49.973Z,97994.28
2023-04-08T11:48:18.394Z,98006.94
2023-04-08T11:50:47.533Z,98002.44
2023-04-08T11:53:19.847Z,98001.84
2023-04-08T11:55:48.537Z,97998.41
2023-04-08T11:58:16.530Z,97993.84
2023-04-08T12:00:45.649Z,97995.22
2023-04-08T12:03:13.639Z,97990.50
2023-04-08T12:05:42.625Z,97988.59
2023-04-08T12:08:11.856Z,97989.22
2023-04-08T12:10:39.645Z,97995.69
2023-04-08T12:13:07.430Z,97989.50
2023-04-08T12:15:35.184Z,97993.84
2023-04-08T12:18:03.152Z,97990.50
2023-04-08T12:20:31.012Z,97990.03
2023-04-08T12:22:58.791Z,97990.56
2023-04-08T12:25:31.401Z,97994.34
2023-04-08T12:27:59.217Z,97981.44
2023-04-08T12:30:26.996Z,97986.44
2023-04-08T12:32:55.423Z,97993.47
2023-04-08T12:35:23.334Z,97985.22
2023-04-08T12:37:51.184Z,97980.38
2023-04-08T12:40:19.238Z,97985.00
2023-04-08T12:42:48.623Z,97984.94
2023-04-08T12:45:16.603Z,97980.53
2023-04-08T12:47:44.431Z,97988.44
2023-04-08T12:50:12.261Z,97977.69
2023-04-08T12:52:40.098Z,97987.59
2023-04-08T12:55:08.662Z,97992.69
2023-04-08T12:57:36.419Z,97995.19
2023-04-08T13:00:06.496Z,97988.25
2023-04-08T13:02:34.336Z,97991.13
2023-04-08T13:05:02.187Z,97987.22
2023-04-08T13:07:30.028Z,97988.94
2023-04-08T13:09:57.752Z,97979.31
2023-04-08T13:12:25.564Z,97987.81
2023-04-08T13:14:53.383Z,97982.38
2023-04-08T13:17:22.876Z,97987.88
2023-04-08T13:19:51.229Z,97989.56
2023-04-08T13:22:19.128Z,97929.09
2023-04-08T13:24:46.927Z,98000.88
2023-04-08T13:27:14.752Z,97995.16
2023-04-08T13:29:42.617Z,97996.81
2023-04-08T13:32:10.461Z,98002.94
2023-04-08T13:34:39.597Z,98008.72
2023-04-08T13:37:07.404Z,97997.69
2023-04-08T13:39:35.646Z,98001.84
2023-04-08T13:42:03.533Z,98001.72
2023-04-08T13:44:33.166Z,97997.34
2023-04-08T13:47:00.959Z,97998.72
2023-04-08T13:49:28.806Z,97999.91
2023-04-08T13:51:57.927Z,97997.97
2023-04-08T13:54:25.904Z,98012.13
2023-04-08T13:56:53.721Z,98000.81
2023-04-08T13:59:21.514Z,98005.69
2023-04-08T14:01:53.750Z,97995.44
2023-04-08T14:04:21.858Z,98004.84
2023-04-08T14:06:51.047Z,98006.16
2023-04-08T14:09:20.704Z,98005.22
2023-04-08T14:11:48.467Z,97999.97
2023-04-08T14:14:16.214Z,98002.38
2023-04-08T14:16:44.058Z,98002.22
2023-04-08T14:19:11.871Z,97997.09
2023-04-08T14:21:39.730Z,97989.97
2023-04-08T14:24:07.598Z,97993.53
2023-04-08T14:26:36.775Z,97997.88
2023-04-08T14:29:05.471Z,97999.03
2023-04-08T14:31:33.328Z,98000.53
2023-04-08T14:34:01.453Z,98004.47
2023-04-08T14:36:30.280Z,98000.03
2023-04-08T14:38:58.118Z,97985.72
2023-04-08T14:41:27.290Z,98007.19
2023-04-08T14:43:56.524Z,97998.81
2023-04-08T14:46:26.485Z,97996.84
2023-04-08T14:48:55.923Z,98002.75
2023-04-08T14:51:23.687Z,98004.06
2023-04-08T14:53:51.677Z,97997.94
2023-04-08T14:56:19.509Z,97995.22
2023-04-08T14:58:47.296Z,97987.88
2023-04-08T15:01:16.421Z,97991.50
2023-04-08T15:03:44.306Z,97993.38
2023-04-08T15:06:16.916Z,97996.56
2023-04-08T15:08:45.823Z,98002.03
2023-04-08T15:11:13.768Z,98004.34
2023-04-08T15:13:41.729Z,98012.09
2023-04-08T15:16:09.577Z,98003.59
2023-04-08T15:18:38.737Z,98006.09
2023-04-08T15:21:06.602Z,98011.00
2023-04-08T15:23:34.368Z,98013.56
2023-04-08T15:26:03.426Z,98016.03
2023-04-08T15:28:31.188Z,98018.97
2023-04-08T15:30:59.066Z,98017.41
2023-04-08T15:33:27.121Z,98007.44
2023-04-08T15:35:57.493Z,98018.75
2023-04-08T15:38:25.557Z,98015.41
2023-04-08T15:40:53.563Z,98019.56
2023-04-08T15:43:21.396Z,98020.84
2023-04-08T15:45:49.152Z,98015.91
2023-04-08T15:48:16.970Z,98021.03
2023-04-08T15:50:44.838Z,98028.88
2023-04-08T15:53:13.998Z,98017.38
2023-04-08T15:55:42.208Z,98024.56
2023-04-08T15:58:10.026Z,98020.56
2023-04-08T16:00:37.843Z,98026.41
2023-04-08T16:03:08.435Z,98031.41
2023-04-08T16:05:39.226Z,98032.78
2023-04-08T16:08:07.699Z,98030.34
2023-04-08T16:10:37.329Z,98044.09
2023-04-08T16:13:05.116Z,98037.06
2023-04-08T16:15:34.147Z,98053.78
2023-04-08T16:18:03.094Z,98046.41
2023-04-08T16:20:30.890Z,98044.81
2023-04-08T16:22:58.633Z,98046.41
2023-04-08T16:25:28.175Z,98047.72
2023-04-08T16:27:57.471Z,98044.97
2023-04-08T16:30:25.303Z,98047.53
2023-04-08T16:32:53.134Z,98055.50
2023-04-08T16:35:22.348Z,98053.97
2023-04-08T16:37:50.192Z,98052.63
2023-04-08T16:40:18.286Z,98057.06
2023-04-08T16:42:46.121Z,98058.25
2023-04-08T16:45:15.778Z,98060.53
2023-04-08T16:47:44.475Z,98059.34
2023-04-08T16:50:12.484Z,98056.44
2023-04-08T16:52:40.266Z,98062.47
2023-04-08T16:55:09.198Z,98066.06
2023-04-08T16:57:36.974Z,98064.38
2023-04-08T17:00:05.232Z,98067.38
2023-04-08T17:02:34.478Z,98059.56
2023-04-08T17:05:02.315Z,98062.47
2023-04-08T17:07:31.202Z,98068.75
2023-04-08T17:09:59.043Z,98069.59
2023-04-08T17:12:26.839Z,98068.88
2023-04-08T17:14:54.678Z,98067.56
2023-04-08T17:17:22.480Z,98074.75
2023-04-08T17:19:52.003Z,98067.72
2023-04-08T17:22:19.751Z,98072.13
2023-04-08T17:24:48.187Z,98075.34
2023-04-08T17:27:16.160Z,98072.88
2023-04-08T17:29:43.956Z,98079.06
2023-04-08T17:32:12.518Z,98077.53
2023-04-08T17:34:41.016Z,98083.28
2023-04-08T17:37:10.481Z,98079.88
2023-04-08T17:39:40.931Z,98078.16
2023-04-08T17:42:08.963Z,98076.97
2023-04-08T17:44:36.903Z,98084.25
2023-04-08T17:47:04.972Z,98077.28
2023-04-08T17:49:32.792Z,98086.25
2023-04-08T17:52:00.640Z,98081.31
2023-04-08T17:54:31.468Z,98097.72
2023-04-08T17:56:59.263Z,98094.38
2023-04-08T17:59:27.071Z,98097.41
2023-04-08T18:01:54.968Z,98099.56
2023-04-08T18:04:22.954Z,98105.16
2023-04-08T18:06:50.795Z,98105.47
2023-04-08T18:09:18.556Z,98101.19
2023-04-08T18:11:47.639Z,98101.13
2023-04-08T18:14:15.418Z,98108.09
2023-04-08T18:16:43.282Z,98107.16
2023-04-08T18:19:11.069Z,98121.22
2023-04-08T18:21:38.908Z,98112.72
2023-04-08T18:24:08.722Z,98116.59
2023-04-08T18:26:37.106Z,98124.47
2023-04-08T18:29:06.761Z,98124.53
2023-04-08T18:31:34.648Z,98117.50
2023-04-08T18:34:03.186Z,98122.69
2023-04-08T18:36:31.742Z,98127.09
2023-04-08T18:38:59.488Z,98132.34
2023-04-08T18:41:28.018Z,98136.91
2023-04-08T18:43:56.003Z,98133.41
2023-04-08T18:46:25.256Z,98138.66
2023-04-08T18:48:53.066Z,98133.41
2023-04-08T18:51:20.850Z,98135.22
2023-04-08T18:53:49.855Z,98135.34
2023-04-08T18:56:18.004Z,98137.25
2023-04-08T18:58:46.326Z,98148.44
2023-04-08T19:01:14.372Z,98126.13
2023-04-08T19:03:44.356Z,98145.00
2023-04-08T19:06:13.040Z,98152.09
2023-04-08T19:08:41.491Z,98143.25
2023-04-08T19:11:09.252Z,98144.22
2023-04-08T19:13:37.075Z,98146.00
2023-04-08T19:16:05.149Z,98145.94
2023-04-08T19:18:32.980Z,98145.00
2023-04-08T19:21:03.601Z,98151.19
2023-04-08T19:23:32.108Z,98153.25
2023-04-08T19:25:59.915Z,98159.59
2023-04-08T19:28:27.633Z,98155.34
2023-04-08T19:30:55.423Z,98159.66
2023-04-08T19:33:23.668Z,98160.09
2023-04-08T19:35:51.483Z,98161.97
2023-04-08T19:38:20.624Z,98163.81
2023-04-08T19:40:49.254Z,98168.63
2023-04-08T19:43:17.918Z,98168.53
2023-04-08T19:45:46.321Z,98161.03
2023-04-08T19:48:14.226Z,98162.94
2023-04-08T19:50:42.745Z,98160.75
2023-04-08T19:53:10.482Z,98164.34
2023-04-08T19:55:39.817Z,98157.81
2023-04-08T19:58:07.900Z,98168.47
2023-04-08T20:00:37.408Z,98170.16
2023-04-08T20:03:05.859Z,98173.81
2023-04-08T20:05:33.872Z,98176.94
2023-04-08T20:08:01.656Z,98177.06
2023-04-08T20:10:29.571Z,98181.72
2023-04-08T20:12:58.698Z,98183.59
2023-04-08T20:15:26.594Z,98180.97
2023-04-08T20:17:54.462Z,98188.97
2023-04-08T20:20:22.911Z,98182.78
2023-04-08T20:22:50.855Z,98182.00
2023-04-08T20:25:18.752Z,98183.72
2023-04-08T20:27:46.599Z,98183.00
2023-04-08T20:30:15.848Z,98189.16
2023-04-08T20:32:43.633Z,98183.13
2023-04-08T20:35:11.830Z,98189.06
2023-04-08T20:37:39.566Z,98183.06
2023-04-08T20:40:09.206Z,98186.81
2023-04-08T20:42:38.610Z,98194.59
2023-04-08T20:45:07.543Z,98186.72
2023-04-08T20:47:36.714Z,98181.81
2023-04-08T20:50:04.911Z,98179.38
2023-04-08T20:52:32.724Z,98187.91
2023-04-08T20:55:00.629Z,98184.63
2023-04-08T20:57:28.414Z,98180.31
2023-04-08T20:59:56.144Z,98189.88
2023-04-08T21:02:24.342Z,98186.34
2023-04-08T21:04:53.658Z,98188.31
2023-04-08T21:07:32.874Z,98195.19
2023-04-08T21:10:01.152Z,98196.19
2023-04-08T21:12:35.029Z,98193.56
2023-04-08T21:15:02.758Z,98199.66
2023-04-08T21:17:31.279Z,98189.34
2023-04-08T21:20:00.521Z,98196.34
2023-04-08T21:22:28.886Z,98192.13
2023-04-08T21:24:57.891Z,98192.13
2023-04-08T21:27:25.666Z,98200.84
2023-04-08T21:29:53.495Z,98199.25
2023-04-08T21:32:21.257Z,98153.88
2023-04-08T21:34:49.060Z,98197.47
2023-04-08T21:37:18.339Z,98193.94
2023-04-08T21:39:46.809Z,98195.75
2023-04-08T21:42:14.556Z,98199.28
2023-04-08T21:44:42.478Z,98195.97
2023-04-08T21:47:10.744Z,98193.41
2023-04-08T21:49:38.520Z,98196.88
2023-04-08T21:52:06.854Z,98194.47
2023-04-08T21:54:36.460Z,98174.97
2023-04-08T21:57:04.634Z,98191.94
2023-04-08T21:59:32.380Z,98198.00
2023-04-08T22:02:03.919Z,98198.00
2023-04-08T22:04:31.812Z,98185.91
2023-04-08T22:06:59.795Z,98199.69
2023-04-08T22:09:27.890Z,98198.00
2023-04-08T22:11:57.967Z,98201.72
2023-04-08T22:14:26.149Z,98186.25
2023-04-08T22:16:54.706Z,98192.41
2023-04-08T22:19:22.505Z,98189.72
2023-04-08T22:21:51.255Z,98185.31
2023-04-08T22:24:19.572Z,98181.06
2023-04-08T22:26:47.433Z,98172.78
2023-04-08T22:29:17.351Z,98180.28
2023-04-08T22:31:45.578Z,98189.84
2023-04-08T22:34:13.681Z,98184.72
2023-04-08T22:36:41.572Z,98181.19
2023-04-08T22:39:09.579Z,98170.00
2023-04-08T22:41:37.409Z,98175.88
2023-04-08T22:44:05.441Z,98178.56
2023-04-08T22:46:35.044Z,98177.72
2023-04-08T22:49:03.325Z,98178.44
2023-04-08T22:51:31.046Z,98178.44
2023-04-08T22:53:59.261Z,98185.56
2023-04-08T22:56:28.937Z,98169.25
2023-04-08T22:58:56.796Z,98183.03
2023-04-08T23:01:24.757Z,98178.44
2023-04-08T23:03:54.395Z,98179.38
2023-04-08T23:06:22.492Z,98174.13
2023-04-08T23:08:50.539Z,98177.81
2023-04-08T23:11:19.053Z,98176.09
2023-04-08T23:13:47.039Z,98181.34
2023-04-08T23:16:14.902Z,98177.81
2023-04-08T23:18:43.139Z,98182.28
2023-04-08T23:21:12.338Z,98185.13
2023-04-08T23:23:40.100Z,98181.75
2023-04-08T23:26:07.945Z,98180.91
2023-04-08T23:28:35.766Z,98178.41
2023-04-08T23:31:05.340Z,98177.41
2023-04-08T23:33:33.132Z,98186.94
2023-04-08T23:36:00.898Z,98176.81
2023-04-08T23:38:30.039Z,98181.09
2023-04-08T23:40:57.759Z,98178.59
2023-04-08T23:43:25.533Z,98179.56
2023-04-08T23:45:53.260Z,98180.44
2023-04-08T23:48:21.007Z,98188.09
2023-04-08T23:50:52.315Z,98187.19
2023-04-08T23:53:20.273Z,98188.19
2023-04-08T23:55:49.411Z,98185.59
2023-04-08T23:58:17.277Z,98187.44
